sensor_id;sensor_type;location;lat;lon;timestamp;P1;durP1;ratioP1;P2;durP2;ratioP2
55728;SDS011;41633;39.720;2.910;2024-01-15T00:02:16;14.38;;;4.15;;
55728;SDS011;41633;39.720;2.910;2024-01-15T00:04:44;16.95;;;4.65;;
55728;SDS011;41633;39.720;2.910;2024-01-15T00:07:13;14.43;;;4.15;;
55728;SDS011;41633;39.720;2.910;2024-01-15T00:09:42;15.50;;;4.47;;
55728;SDS011;41633;39.720;2.910;2024-01-15T00:12:12;16.50;;;4.20;;
55728;SDS011;41633;39.720;2.910;2024-01-15T00:14:41;14.45;;;4.40;;
55728;SDS011;41633;39.720;2.910;2024-01-15T00:17:08;17.05;;;4.82;;
55728;SDS011;41633;39.720;2.910;2024-01-15T00:19:38;14.43;;;4.55;;
55728;SDS011;41633;39.720;2.910;2024-01-15T00:22:07;15.18;;;3.50;;
55728;SDS011;41633;39.720;2.910;2024-01-15T00:24:34;19.25;;;4.72;;
55728;SDS011;41633;39.720;2.910;2024-01-15T00:27:03;13.63;;;4.63;;
55728;SDS011;41633;39.720;2.910;2024-01-15T00:29:32;16.80;;;4.85;;
55728;SDS011;41633;39.720;2.910;2024-01-15T00:32:02;13.70;;;4.53;;
55728;SDS011;41633;39.720;2.910;2024-01-15T00:34:30;16.75;;;4.93;;
55728;SDS011;41633;39.720;2.910;2024-01-15T00:36:59;14.55;;;4.13;;
55728;SDS011;41633;39.720;2.910;2024-01-15T00:39:27;15.88;;;4.20;;
55728;SDS011;41633;39.720;2.910;2024-01-15T00:41:56;15.50;;;4.78;;
55728;SDS011;41633;39.720;2.910;2024-01-15T00:44:24;18.38;;;5.35;;
55728;SDS011;41633;39.720;2.910;2024-01-15T00:46:52;16.13;;;5.47;;
55728;SDS011;41633;39.720;2.910;2024-01-15T00:49:21;17.40;;;5.35;;
55728;SDS011;41633;39.720;2.910;2024-01-15T00:51:52;14.55;;;4.13;;
55728;SDS011;41633;39.720;2.910;2024-01-15T00:54:20;13.15;;;3.97;;
55728;SDS011;41633;39.720;2.910;2024-01-15T00:56:48;13.95;;;4.40;;
55728;SDS011;41633;39.720;2.910;2024-01-15T00:59:15;17.08;;;5.05;;
55728;SDS011;41633;39.720;2.910;2024-01-15T01:01:43;14.98;;;5.25;;
55728;SDS011;41633;39.720;2.910;2024-01-15T01:04:12;14.57;;;4.38;;
55728;SDS011;41633;39.720;2.910;2024-01-15T01:06:40;14.52;;;4.03;;
55728;SDS011;41633;39.720;2.910;2024-01-15T01:09:08;16.17;;;4.35;;
55728;SDS011;41633;39.720;2.910;2024-01-15T01:11:37;16.75;;;4.60;;
55728;SDS011;41633;39.720;2.910;2024-01-15T01:14:04;15.73;;;5.68;;
55728;SDS011;41633;39.720;2.910;2024-01-15T01:16:32;14.68;;;5.43;;
55728;SDS011;41633;39.720;2.910;2024-01-15T01:19:05;16.88;;;5.20;;
55728;SDS011;41633;39.720;2.910;2024-01-15T01:21:34;14.02;;;4.45;;
55728;SDS011;41633;39.720;2.910;2024-01-15T01:24:02;12.10;;;3.10;;
55728;SDS011;41633;39.720;2.910;2024-01-15T01:26:31;13.48;;;3.83;;
55728;SDS011;41633;39.720;2.910;2024-01-15T01:29:00;14.63;;;4.20;;
55728;SDS011;41633;39.720;2.910;2024-01-15T01:31:28;18.35;;;4.47;;
55728;SDS011;41633;39.720;2.910;2024-01-15T01:33:57;14.88;;;3.97;;
55728;SDS011;41633;39.720;2.910;2024-01-15T01:36:26;13.40;;;3.72;;
55728;SDS011;41633;39.720;2.910;2024-01-15T01:38:54;16.67;;;4.40;;
55728;SDS011;41633;39.720;2.910;2024-01-15T01:41:23;12.27;;;3.97;;
55728;SDS011;41633;39.720;2.910;2024-01-15T01:43:51;12.38;;;3.78;;
55728;SDS011;41633;39.720;2.910;2024-01-15T01:46:20;9.60;;;2.95;;
55728;SDS011;41633;39.720;2.910;2024-01-15T01:48:49;11.57;;;3.15;;
55728;SDS011;41633;39.720;2.910;2024-01-15T01:51:17;12.25;;;3.47;;
55728;SDS011;41633;39.720;2.910;2024-01-15T01:53:45;10.98;;;2.38;;
55728;SDS011;41633;39.720;2.910;2024-01-15T01:56:14;12.30;;;2.65;;
55728;SDS011;41633;39.720;2.910;2024-01-15T01:58:41;9.65;;;2.33;;
55728;SDS011;41633;39.720;2.910;2024-01-15T02:01:10;9.68;;;2.35;;
55728;SDS011;41633;39.720;2.910;2024-01-15T02:03:39;10.30;;;2.40;;
55728;SDS011;41633;39.720;2.910;2024-01-15T02:06:08;10.82;;;2.20;;
55728;SDS011;41633;39.720;2.910;2024-01-15T02:08:36;11.82;;;2.45;;
55728;SDS011;41633;39.720;2.910;2024-01-15T02:11:05;11.00;;;1.98;;
55728;SDS011;41633;39.720;2.910;2024-01-15T02:13:34;10.30;;;2.25;;
55728;SDS011;41633;39.720;2.910;2024-01-15T02:16:02;11.32;;;2.95;;
55728;SDS011;41633;39.720;2.910;2024-01-15T02:18:29;8.07;;;2.03;;
55728;SDS011;41633;39.720;2.910;2024-01-15T02:20:56;8.43;;;1.98;;
55728;SDS011;41633;39.720;2.910;2024-01-15T02:23:24;11.20;;;2.35;;
55728;SDS011;41633;39.720;2.910;2024-01-15T02:25:52;10.85;;;2.30;;
55728;SDS011;41633;39.720;2.910;2024-01-15T02:28:21;9.75;;;2.35;;
55728;SDS011;41633;39.720;2.910;2024-01-15T02:30:50;9.60;;;2.28;;
55728;SDS011;41633;39.720;2.910;2024-01-15T02:33:17;8.90;;;2.17;;
55728;SDS011;41633;39.720;2.910;2024-01-15T02:35:46;9.52;;;2.60;;
55728;SDS011;41633;39.720;2.910;2024-01-15T02:38:17;12.30;;;2.83;;
55728;SDS011;41633;39.720;2.910;2024-01-15T02:40:49;13.05;;;2.60;;
55728;SDS011;41633;39.720;2.910;2024-01-15T02:43:30;12.52;;;2.50;;
55728;SDS011;41633;39.720;2.910;2024-01-15T02:45:58;9.07;;;2.25;;
55728;SDS011;41633;39.720;2.910;2024-01-15T02:48:27;11.00;;;3.10;;
55728;SDS011;41633;39.720;2.910;2024-01-15T02:50:56;11.18;;;3.47;;
55728;SDS011;41633;39.720;2.910;2024-01-15T02:53:24;11.23;;;3.70;;
55728;SDS011;41633;39.720;2.910;2024-01-15T02:55:53;15.23;;;4.70;;
55728;SDS011;41633;39.720;2.910;2024-01-15T02:58:22;12.02;;;5.78;;
55728;SDS011;41633;39.720;2.910;2024-01-15T03:00:50;10.52;;;3.63;;
55728;SDS011;41633;39.720;2.910;2024-01-15T03:03:19;11.02;;;2.97;;
55728;SDS011;41633;39.720;2.910;2024-01-15T03:05:48;10.63;;;2.30;;
55728;SDS011;41633;39.720;2.910;2024-01-15T03:08:16;9.40;;;2.60;;
55728;SDS011;41633;39.720;2.910;2024-01-15T03:10:43;11.35;;;2.50;;
55728;SDS011;41633;39.720;2.910;2024-01-15T03:13:11;9.50;;;2.15;;
55728;SDS011;41633;39.720;2.910;2024-01-15T03:15:39;10.85;;;1.95;;
55728;SDS011;41633;39.720;2.910;2024-01-15T03:18:08;8.93;;;1.90;;
55728;SDS011;41633;39.720;2.910;2024-01-15T03:20:37;9.52;;;2.33;;
55728;SDS011;41633;39.720;2.910;2024-01-15T03:23:05;11.32;;;2.20;;
55728;SDS011;41633;39.720;2.910;2024-01-15T03:25:34;9.05;;;2.10;;
55728;SDS011;41633;39.720;2.910;2024-01-15T03:28:02;12.00;;;2.20;;
55728;SDS011;41633;39.720;2.910;2024-01-15T03:32:56;10.18;;;2.15;;
55728;SDS011;41633;39.720;2.910;2024-01-15T03:35:25;8.25;;;2.00;;
55728;SDS011;41633;39.720;2.910;2024-01-15T03:37:55;10.35;;;2.00;;
55728;SDS011;41633;39.720;2.910;2024-01-15T03:40:24;8.38;;;2.10;;
55728;SDS011;41633;39.720;2.910;2024-01-15T03:42:53;7.55;;;1.90;;
55728;SDS011;41633;39.720;2.910;2024-01-15T03:45:22;8.25;;;1.92;;
55728;SDS011;41633;39.720;2.910;2024-01-15T03:47:52;9.55;;;2.03;;
55728;SDS011;41633;39.720;2.910;2024-01-15T03:50:21;7.68;;;1.67;;
55728;SDS011;41633;39.720;2.910;2024-01-15T03:52:52;9.85;;;1.90;;
55728;SDS011;41633;39.720;2.910;2024-01-15T03:55:20;7.53;;;1.95;;
55728;SDS011;41633;39.720;2.910;2024-01-15T03:57:51;8.75;;;1.90;;
55728;SDS011;41633;39.720;2.910;2024-01-15T04:00:20;10.80;;;1.70;;
55728;SDS011;41633;39.720;2.910;2024-01-15T04:02:49;10.93;;;1.80;;
55728;SDS011;41633;39.720;2.910;2024-01-15T04:05:19;9.02;;;1.83;;
55728;SDS011;41633;39.720;2.910;2024-01-15T04:07:47;9.23;;;2.05;;
55728;SDS011;41633;39.720;2.910;2024-01-15T04:10:16;7.78;;;2.00;;
55728;SDS011;41633;39.720;2.910;2024-01-15T04:12:43;11.60;;;2.35;;
55728;SDS011;41633;39.720;2.910;2024-01-15T04:15:15;9.57;;;2.60;;
55728;SDS011;41633;39.720;2.910;2024-01-15T04:17:44;11.18;;;3.42;;
55728;SDS011;41633;39.720;2.910;2024-01-15T04:20:13;10.63;;;2.65;;
55728;SDS011;41633;39.720;2.910;2024-01-15T04:22:50;9.25;;;1.90;;
55728;SDS011;41633;39.720;2.910;2024-01-15T04:25:19;9.82;;;1.70;;
55728;SDS011;41633;39.720;2.910;2024-01-15T04:27:47;6.88;;;2.00;;
55728;SDS011;41633;39.720;2.910;2024-01-15T04:30:15;8.90;;;1.80;;
55728;SDS011;41633;39.720;2.910;2024-01-15T04:32:42;10.90;;;2.00;;
55728;SDS011;41633;39.720;2.910;2024-01-15T04:35:11;7.53;;;1.85;;
55728;SDS011;41633;39.720;2.910;2024-01-15T04:37:40;7.30;;;1.60;;
55728;SDS011;41633;39.720;2.910;2024-01-15T04:40:09;9.05;;;1.60;;
55728;SDS011;41633;39.720;2.910;2024-01-15T04:42:36;8.77;;;1.92;;
55728;SDS011;41633;39.720;2.910;2024-01-15T04:45:04;6.50;;;1.70;;
55728;SDS011;41633;39.720;2.910;2024-01-15T04:47:33;7.75;;;1.60;;
55728;SDS011;41633;39.720;2.910;2024-01-15T04:50:01;7.70;;;1.60;;
55728;SDS011;41633;39.720;2.910;2024-01-15T04:52:30;7.80;;;1.67;;
55728;SDS011;41633;39.720;2.910;2024-01-15T04:54:58;7.07;;;1.73;;
55728;SDS011;41633;39.720;2.910;2024-01-15T04:57:26;8.75;;;1.58;;
55728;SDS011;41633;39.720;2.910;2024-01-15T04:59:55;8.07;;;1.65;;
55728;SDS011;41633;39.720;2.910;2024-01-15T05:02:23;7.78;;;1.83;;
55728;SDS011;41633;39.720;2.910;2024-01-15T05:04:53;8.70;;;2.13;;
55728;SDS011;41633;39.720;2.910;2024-01-15T05:07:20;9.25;;;2.40;;
55728;SDS011;41633;39.720;2.910;2024-01-15T05:09:51;10.10;;;2.67;;
55728;SDS011;41633;39.720;2.910;2024-01-15T05:12:19;10.30;;;3.00;;
55728;SDS011;41633;39.720;2.910;2024-01-15T05:14:57;9.73;;;2.75;;
55728;SDS011;41633;39.720;2.910;2024-01-15T05:17:48;11.85;;;3.13;;
55728;SDS011;41633;39.720;2.910;2024-01-15T05:20:16;11.60;;;3.40;;
55728;SDS011;41633;39.720;2.910;2024-01-15T05:22:44;11.43;;;3.13;;
55728;SDS011;41633;39.720;2.910;2024-01-15T05:25:13;11.45;;;2.90;;
55728;SDS011;41633;39.720;2.910;2024-01-15T05:27:39;11.15;;;3.35;;
55728;SDS011;41633;39.720;2.910;2024-01-15T05:30:06;11.60;;;3.30;;
55728;SDS011;41633;39.720;2.910;2024-01-15T05:32:34;16.30;;;3.50;;
55728;SDS011;41633;39.720;2.910;2024-01-15T05:35:01;13.02;;;3.17;;
55728;SDS011;41633;39.720;2.910;2024-01-15T05:37:29;14.45;;;3.00;;
55728;SDS011;41633;39.720;2.910;2024-01-15T05:39:56;11.80;;;3.20;;
55728;SDS011;41633;39.720;2.910;2024-01-15T05:42:25;11.90;;;3.35;;
55728;SDS011;41633;39.720;2.910;2024-01-15T05:44:56;14.25;;;3.83;;
55728;SDS011;41633;39.720;2.910;2024-01-15T05:47:30;12.85;;;3.22;;
55728;SDS011;41633;39.720;2.910;2024-01-15T05:50:00;12.95;;;3.45;;
55728;SDS011;41633;39.720;2.910;2024-01-15T05:52:29;12.27;;;3.28;;
55728;SDS011;41633;39.720;2.910;2024-01-15T05:54:56;11.52;;;3.58;;
55728;SDS011;41633;39.720;2.910;2024-01-15T05:57:24;15.20;;;4.60;;
55728;SDS011;41633;39.720;2.910;2024-01-15T05:59:56;16.27;;;4.60;;
55728;SDS011;41633;39.720;2.910;2024-01-15T06:02:23;16.95;;;4.57;;
55728;SDS011;41633;39.720;2.910;2024-01-15T06:04:52;13.65;;;3.88;;
55728;SDS011;41633;39.720;2.910;2024-01-15T06:07:20;15.15;;;4.82;;
55728;SDS011;41633;39.720;2.910;2024-01-15T06:09:48;14.77;;;4.60;;
55728;SDS011;41633;39.720;2.910;2024-01-15T06:12:18;15.35;;;4.68;;
55728;SDS011;41633;39.720;2.910;2024-01-15T06:14:48;20.65;;;5.00;;
55728;SDS011;41633;39.720;2.910;2024-01-15T06:17:14;12.68;;;4.38;;
55728;SDS011;41633;39.720;2.910;2024-01-15T06:19:42;15.15;;;4.13;;
55728;SDS011;41633;39.720;2.910;2024-01-15T06:22:11;12.60;;;3.88;;
55728;SDS011;41633;39.720;2.910;2024-01-15T06:24:40;14.65;;;4.32;;
55728;SDS011;41633;39.720;2.910;2024-01-15T06:27:09;12.55;;;4.35;;
55728;SDS011;41633;39.720;2.910;2024-01-15T06:29:37;14.07;;;4.28;;
55728;SDS011;41633;39.720;2.910;2024-01-15T06:32:06;11.80;;;4.00;;
55728;SDS011;41633;39.720;2.910;2024-01-15T06:34:35;13.90;;;3.95;;
55728;SDS011;41633;39.720;2.910;2024-01-15T06:37:04;15.52;;;4.60;;
55728;SDS011;41633;39.720;2.910;2024-01-15T06:39:31;12.48;;;4.13;;
55728;SDS011;41633;39.720;2.910;2024-01-15T06:42:00;11.38;;;4.15;;
55728;SDS011;41633;39.720;2.910;2024-01-15T06:44:31;17.45;;;8.38;;
55728;SDS011;41633;39.720;2.910;2024-01-15T06:46:58;15.65;;;6.00;;
55728;SDS011;41633;39.720;2.910;2024-01-15T06:49:28;16.15;;;4.57;;
55728;SDS011;41633;39.720;2.910;2024-01-15T06:51:56;13.82;;;4.30;;
55728;SDS011;41633;39.720;2.910;2024-01-15T06:54:25;12.80;;;4.25;;
55728;SDS011;41633;39.720;2.910;2024-01-15T06:56:53;13.60;;;4.82;;
55728;SDS011;41633;39.720;2.910;2024-01-15T06:59:22;16.88;;;5.72;;
55728;SDS011;41633;39.720;2.910;2024-01-15T07:01:51;18.15;;;5.00;;
55728;SDS011;41633;39.720;2.910;2024-01-15T07:04:22;14.32;;;4.95;;
55728;SDS011;41633;39.720;2.910;2024-01-15T07:06:49;18.38;;;6.20;;
55728;SDS011;41633;39.720;2.910;2024-01-15T07:09:17;15.18;;;5.28;;
55728;SDS011;41633;39.720;2.910;2024-01-15T07:11:45;16.88;;;6.18;;
55728;SDS011;41633;39.720;2.910;2024-01-15T07:14:17;13.10;;;5.00;;
55728;SDS011;41633;39.720;2.910;2024-01-15T07:16:46;19.85;;;5.65;;
55728;SDS011;41633;39.720;2.910;2024-01-15T07:19:15;15.68;;;5.63;;
55728;SDS011;41633;39.720;2.910;2024-01-15T07:21:42;14.25;;;5.32;;
55728;SDS011;41633;39.720;2.910;2024-01-15T07:24:10;15.35;;;5.00;;
55728;SDS011;41633;39.720;2.910;2024-01-15T07:26:40;13.73;;;5.20;;
55728;SDS011;41633;39.720;2.910;2024-01-15T07:29:08;15.30;;;5.50;;
55728;SDS011;41633;39.720;2.910;2024-01-15T07:31:37;17.75;;;6.28;;
55728;SDS011;41633;39.720;2.910;2024-01-15T07:34:04;16.67;;;5.90;;
55728;SDS011;41633;39.720;2.910;2024-01-15T07:36:33;14.32;;;5.57;;
55728;SDS011;41633;39.720;2.910;2024-01-15T07:39:01;15.90;;;6.05;;
55728;SDS011;41633;39.720;2.910;2024-01-15T07:41:30;17.10;;;6.15;;
55728;SDS011;41633;39.720;2.910;2024-01-15T07:43:59;16.67;;;6.05;;
55728;SDS011;41633;39.720;2.910;2024-01-15T07:46:27;14.75;;;6.13;;
55728;SDS011;41633;39.720;2.910;2024-01-15T07:48:56;14.35;;;5.38;;
55728;SDS011;41633;39.720;2.910;2024-01-15T07:51:24;14.55;;;6.50;;
55728;SDS011;41633;39.720;2.910;2024-01-15T07:53:53;16.98;;;6.50;;
55728;SDS011;41633;39.720;2.910;2024-01-15T07:56:22;16.10;;;6.75;;
55728;SDS011;41633;39.720;2.910;2024-01-15T07:58:53;14.52;;;5.70;;
55728;SDS011;41633;39.720;2.910;2024-01-15T08:01:26;22.42;;;6.65;;
55728;SDS011;41633;39.720;2.910;2024-01-15T08:03:55;16.00;;;6.20;;
55728;SDS011;41633;39.720;2.910;2024-01-15T08:06:23;16.90;;;6.80;;
55728;SDS011;41633;39.720;2.910;2024-01-15T08:08:50;19.85;;;6.65;;
55728;SDS011;41633;39.720;2.910;2024-01-15T08:11:18;16.20;;;6.13;;
55728;SDS011;41633;39.720;2.910;2024-01-15T08:13:46;14.02;;;6.03;;
55728;SDS011;41633;39.720;2.910;2024-01-15T08:16:15;17.10;;;6.20;;
55728;SDS011;41633;39.720;2.910;2024-01-15T08:18:44;17.02;;;6.57;;
55728;SDS011;41633;39.720;2.910;2024-01-15T08:21:10;14.82;;;6.32;;
55728;SDS011;41633;39.720;2.910;2024-01-15T08:23:38;16.95;;;6.60;;
55728;SDS011;41633;39.720;2.910;2024-01-15T08:26:08;16.48;;;5.57;;
55728;SDS011;41633;39.720;2.910;2024-01-15T08:28:46;22.20;;;7.28;;
55728;SDS011;41633;39.720;2.910;2024-01-15T08:31:14;19.40;;;6.50;;
55728;SDS011;41633;39.720;2.910;2024-01-15T08:33:52;16.00;;;5.47;;
55728;SDS011;41633;39.720;2.910;2024-01-15T08:36:19;20.70;;;5.97;;
55728;SDS011;41633;39.720;2.910;2024-01-15T08:38:47;17.15;;;6.30;;
55728;SDS011;41633;39.720;2.910;2024-01-15T08:41:16;18.05;;;5.95;;
55728;SDS011;41633;39.720;2.910;2024-01-15T08:44:06;18.13;;;5.60;;
55728;SDS011;41633;39.720;2.910;2024-01-15T08:46:38;20.08;;;6.15;;
55728;SDS011;41633;39.720;2.910;2024-01-15T08:49:06;17.48;;;5.72;;
55728;SDS011;41633;39.720;2.910;2024-01-15T08:51:33;23.42;;;7.82;;
55728;SDS011;41633;39.720;2.910;2024-01-15T08:54:01;20.35;;;7.07;;
55728;SDS011;41633;39.720;2.910;2024-01-15T08:56:30;15.75;;;6.53;;
55728;SDS011;41633;39.720;2.910;2024-01-15T08:58:59;18.73;;;6.05;;
55728;SDS011;41633;39.720;2.910;2024-01-15T09:01:27;20.80;;;6.90;;
55728;SDS011;41633;39.720;2.910;2024-01-15T09:03:56;18.85;;;6.53;;
55728;SDS011;41633;39.720;2.910;2024-01-15T09:06:27;22.15;;;5.65;;
55728;SDS011;41633;39.720;2.910;2024-01-15T09:08:56;18.25;;;6.15;;
55728;SDS011;41633;39.720;2.910;2024-01-15T09:11:22;15.18;;;5.88;;
55728;SDS011;41633;39.720;2.910;2024-01-15T09:13:49;17.77;;;6.10;;
55728;SDS011;41633;39.720;2.910;2024-01-15T09:16:19;17.85;;;5.82;;
55728;SDS011;41633;39.720;2.910;2024-01-15T09:18:48;20.00;;;5.50;;
55728;SDS011;41633;39.720;2.910;2024-01-15T09:21:16;22.63;;;5.50;;
55728;SDS011;41633;39.720;2.910;2024-01-15T09:23:46;21.95;;;5.13;;
55728;SDS011;41633;39.720;2.910;2024-01-15T09:26:15;15.80;;;4.55;;
55728;SDS011;41633;39.720;2.910;2024-01-15T09:28:43;14.25;;;4.63;;
55728;SDS011;41633;39.720;2.910;2024-01-15T09:31:12;12.30;;;4.10;;
55728;SDS011;41633;39.720;2.910;2024-01-15T09:33:40;14.63;;;4.78;;
55728;SDS011;41633;39.720;2.910;2024-01-15T09:36:08;14.98;;;5.78;;
55728;SDS011;41633;39.720;2.910;2024-01-15T09:38:35;14.23;;;4.88;;
55728;SDS011;41633;39.720;2.910;2024-01-15T09:41:05;12.23;;;4.40;;
55728;SDS011;41633;39.720;2.910;2024-01-15T09:43:33;14.65;;;5.30;;
55728;SDS011;41633;39.720;2.910;2024-01-15T09:46:03;15.70;;;5.50;;
55728;SDS011;41633;39.720;2.910;2024-01-15T09:48:32;12.70;;;4.60;;
55728;SDS011;41633;39.720;2.910;2024-01-15T09:51:07;12.38;;;3.83;;
55728;SDS011;41633;39.720;2.910;2024-01-15T09:53:37;12.32;;;4.22;;
55728;SDS011;41633;39.720;2.910;2024-01-15T09:56:04;13.63;;;4.05;;
55728;SDS011;41633;39.720;2.910;2024-01-15T09:58:32;15.85;;;4.68;;
55728;SDS011;41633;39.720;2.910;2024-01-15T10:01:02;15.82;;;5.80;;
55728;SDS011;41633;39.720;2.910;2024-01-15T10:03:31;15.18;;;4.07;;
55728;SDS011;41633;39.720;2.910;2024-01-15T10:05:59;14.73;;;5.07;;
55728;SDS011;41633;39.720;2.910;2024-01-15T10:08:37;19.88;;;6.05;;
55728;SDS011;41633;39.720;2.910;2024-01-15T10:14:06;18.13;;;7.00;;
55728;SDS011;41633;39.720;2.910;2024-01-15T10:16:42;18.45;;;7.60;;
55728;SDS011;41633;39.720;2.910;2024-01-15T10:19:19;20.63;;;7.45;;
55728;SDS011;41633;39.720;2.910;2024-01-15T10:21:47;16.13;;;6.32;;
55728;SDS011;41633;39.720;2.910;2024-01-15T10:24:16;17.27;;;6.88;;
55728;SDS011;41633;39.720;2.910;2024-01-15T10:26:45;17.55;;;6.13;;
55728;SDS011;41633;39.720;2.910;2024-01-15T10:29:14;20.17;;;5.53;;
55728;SDS011;41633;39.720;2.910;2024-01-15T10:31:42;17.98;;;5.00;;
55728;SDS011;41633;39.720;2.910;2024-01-15T10:34:20;16.75;;;4.20;;
55728;SDS011;41633;39.720;2.910;2024-01-15T10:36:48;13.30;;;4.20;;
55728;SDS011;41633;39.720;2.910;2024-01-15T10:39:22;19.08;;;4.22;;
55728;SDS011;41633;39.720;2.910;2024-01-15T10:41:50;13.90;;;4.68;;
55728;SDS011;41633;39.720;2.910;2024-01-15T10:44:18;17.20;;;3.80;;
55728;SDS011;41633;39.720;2.910;2024-01-15T10:46:47;19.23;;;4.18;;
55728;SDS011;41633;39.720;2.910;2024-01-15T10:49:16;15.85;;;4.85;;
55728;SDS011;41633;39.720;2.910;2024-01-15T10:51:46;17.70;;;5.07;;
55728;SDS011;41633;39.720;2.910;2024-01-15T10:54:15;17.40;;;4.72;;
55728;SDS011;41633;39.720;2.910;2024-01-15T10:56:45;16.02;;;4.47;;
55728;SDS011;41633;39.720;2.910;2024-01-15T10:59:12;12.57;;;3.40;;
55728;SDS011;41633;39.720;2.910;2024-01-15T11:01:41;16.00;;;3.90;;
55728;SDS011;41633;39.720;2.910;2024-01-15T11:04:07;15.90;;;3.70;;
55728;SDS011;41633;39.720;2.910;2024-01-15T11:06:47;16.27;;;4.00;;
55728;SDS011;41633;39.720;2.910;2024-01-15T11:09:21;13.45;;;3.10;;
55728;SDS011;41633;39.720;2.910;2024-01-15T11:11:50;19.23;;;3.58;;
55728;SDS011;41633;39.720;2.910;2024-01-15T11:14:39;13.80;;;3.33;;
55728;SDS011;41633;39.720;2.910;2024-01-15T11:17:10;14.50;;;3.90;;
55728;SDS011;41633;39.720;2.910;2024-01-15T11:20:00;13.13;;;3.30;;
55728;SDS011;41633;39.720;2.910;2024-01-15T11:25:20;15.27;;;4.33;;
55728;SDS011;41633;39.720;2.910;2024-01-15T11:27:49;16.63;;;4.82;;
55728;SDS011;41633;39.720;2.910;2024-01-15T11:30:26;16.50;;;5.45;;
55728;SDS011;41633;39.720;2.910;2024-01-15T11:32:55;11.60;;;4.60;;
55728;SDS011;41633;39.720;2.910;2024-01-15T11:35:51;17.85;;;5.22;;
55728;SDS011;41633;39.720;2.910;2024-01-15T11:38:28;13.00;;;3.80;;
55728;SDS011;41633;39.720;2.910;2024-01-15T11:40:59;13.20;;;3.50;;
55728;SDS011;41633;39.720;2.910;2024-01-15T11:43:29;18.50;;;4.70;;
55728;SDS011;41633;39.720;2.910;2024-01-15T11:45:59;21.23;;;5.07;;
55728;SDS011;41633;39.720;2.910;2024-01-15T11:48:31;22.75;;;5.70;;
55728;SDS011;41633;39.720;2.910;2024-01-15T11:51:05;23.95;;;5.32;;
55728;SDS011;41633;39.720;2.910;2024-01-15T11:53:44;22.50;;;5.30;;
55728;SDS011;41633;39.720;2.910;2024-01-15T11:56:22;26.65;;;5.50;;
55728;SDS011;41633;39.720;2.910;2024-01-15T11:58:51;21.20;;;5.28;;
55728;SDS011;41633;39.720;2.910;2024-01-15T12:01:20;24.60;;;5.70;;
55728;SDS011;41633;39.720;2.910;2024-01-15T12:03:47;20.88;;;4.55;;
55728;SDS011;41633;39.720;2.910;2024-01-15T12:06:15;25.02;;;5.60;;
55728;SDS011;41633;39.720;2.910;2024-01-15T12:08:43;24.45;;;6.35;;
55728;SDS011;41633;39.720;2.910;2024-01-15T12:11:13;31.05;;;6.47;;
55728;SDS011;41633;39.720;2.910;2024-01-15T12:13:40;26.90;;;5.88;;
55728;SDS011;41633;39.720;2.910;2024-01-15T12:16:09;25.92;;;5.85;;
55728;SDS011;41633;39.720;2.910;2024-01-15T12:18:36;26.35;;;6.30;;
55728;SDS011;41633;39.720;2.910;2024-01-15T12:21:04;24.65;;;5.53;;
55728;SDS011;41633;39.720;2.910;2024-01-15T12:23:33;22.38;;;5.72;;
55728;SDS011;41633;39.720;2.910;2024-01-15T12:26:00;25.75;;;5.40;;
55728;SDS011;41633;39.720;2.910;2024-01-15T12:28:29;22.95;;;5.03;;
55728;SDS011;41633;39.720;2.910;2024-01-15T12:30:57;19.52;;;5.22;;
55728;SDS011;41633;39.720;2.910;2024-01-15T12:33:27;21.90;;;4.97;;
55728;SDS011;41633;39.720;2.910;2024-01-15T12:35:56;21.23;;;5.03;;
55728;SDS011;41633;39.720;2.910;2024-01-15T12:38:25;22.42;;;5.57;;
55728;SDS011;41633;39.720;2.910;2024-01-15T12:40:53;21.83;;;5.38;;
55728;SDS011;41633;39.720;2.910;2024-01-15T12:43:22;18.77;;;5.22;;
55728;SDS011;41633;39.720;2.910;2024-01-15T12:45:50;22.42;;;5.10;;
55728;SDS011;41633;39.720;2.910;2024-01-15T12:48:21;20.63;;;5.43;;
55728;SDS011;41633;39.720;2.910;2024-01-15T12:50:51;19.63;;;5.28;;
55728;SDS011;41633;39.720;2.910;2024-01-15T12:53:22;19.77;;;5.25;;
55728;SDS011;41633;39.720;2.910;2024-01-15T12:55:49;16.83;;;5.47;;
55728;SDS011;41633;39.720;2.910;2024-01-15T12:58:18;23.15;;;5.47;;
55728;SDS011;41633;39.720;2.910;2024-01-15T13:00:47;17.52;;;5.05;;
55728;SDS011;41633;39.720;2.910;2024-01-15T13:03:16;16.60;;;4.85;;
55728;SDS011;41633;39.720;2.910;2024-01-15T13:05:45;18.95;;;5.13;;
55728;SDS011;41633;39.720;2.910;2024-01-15T13:08:13;15.90;;;4.93;;
55728;SDS011;41633;39.720;2.910;2024-01-15T13:10:40;20.13;;;5.13;;
55728;SDS011;41633;39.720;2.910;2024-01-15T13:13:08;23.30;;;5.25;;
55728;SDS011;41633;39.720;2.910;2024-01-15T13:15:34;17.60;;;4.93;;
55728;SDS011;41633;39.720;2.910;2024-01-15T13:18:00;14.20;;;4.60;;
55728;SDS011;41633;39.720;2.910;2024-01-15T13:20:29;21.33;;;5.20;;
55728;SDS011;41633;39.720;2.910;2024-01-15T13:22:59;17.67;;;4.57;;
55728;SDS011;41633;39.720;2.910;2024-01-15T13:25:33;17.05;;;4.18;;
55728;SDS011;41633;39.720;2.910;2024-01-15T13:28:13;13.38;;;4.10;;
55728;SDS011;41633;39.720;2.910;2024-01-15T13:30:42;16.05;;;4.72;;
55728;SDS011;41633;39.720;2.910;2024-01-15T13:33:10;14.55;;;4.20;;
55728;SDS011;41633;39.720;2.910;2024-01-15T13:35:37;14.90;;;3.30;;
55728;SDS011;41633;39.720;2.910;2024-01-15T13:38:06;11.45;;;3.00;;
55728;SDS011;41633;39.720;2.910;2024-01-15T13:40:35;12.50;;;2.75;;
55728;SDS011;41633;39.720;2.910;2024-01-15T13:43:03;11.00;;;2.75;;
55728;SDS011;41633;39.720;2.910;2024-01-15T13:45:34;10.90;;;2.50;;
55728;SDS011;41633;39.720;2.910;2024-01-15T13:48:03;10.63;;;2.47;;
55728;SDS011;41633;39.720;2.910;2024-01-15T13:50:35;10.45;;;2.40;;
55728;SDS011;41633;39.720;2.910;2024-01-15T13:53:03;9.30;;;2.50;;
55728;SDS011;41633;39.720;2.910;2024-01-15T13:55:32;10.38;;;2.72;;
55728;SDS011;41633;39.720;2.910;2024-01-15T13:58:23;10.35;;;2.58;;
55728;SDS011;41633;39.720;2.910;2024-01-15T14:00:51;10.52;;;2.78;;
55728;SDS011;41633;39.720;2.910;2024-01-15T14:03:18;11.68;;;2.55;;
55728;SDS011;41633;39.720;2.910;2024-01-15T14:05:47;10.07;;;2.10;;
55728;SDS011;41633;39.720;2.910;2024-01-15T14:08:19;9.88;;;2.95;;
55728;SDS011;41633;39.720;2.910;2024-01-15T14:10:48;12.73;;;2.97;;
55728;SDS011;41633;39.720;2.910;2024-01-15T14:13:16;9.05;;;2.53;;
55728;SDS011;41633;39.720;2.910;2024-01-15T14:15:45;11.38;;;2.85;;
55728;SDS011;41633;39.720;2.910;2024-01-15T14:18:16;11.02;;;2.42;;
55728;SDS011;41633;39.720;2.910;2024-01-15T14:20:46;9.57;;;2.53;;
55728;SDS011;41633;39.720;2.910;2024-01-15T14:23:15;10.57;;;2.50;;
55728;SDS011;41633;39.720;2.910;2024-01-15T14:25:43;10.10;;;2.13;;
55728;SDS011;41633;39.720;2.910;2024-01-15T14:28:12;13.35;;;2.58;;
55728;SDS011;41633;39.720;2.910;2024-01-15T14:30:40;9.15;;;2.42;;
55728;SDS011;41633;39.720;2.910;2024-01-15T14:33:07;12.32;;;2.75;;
55728;SDS011;41633;39.720;2.910;2024-01-15T14:35:37;12.57;;;2.70;;
55728;SDS011;41633;39.720;2.910;2024-01-15T14:38:05;12.88;;;2.70;;
55728;SDS011;41633;39.720;2.910;2024-01-15T14:40:33;12.52;;;2.90;;
55728;SDS011;41633;39.720;2.910;2024-01-15T14:43:03;10.38;;;2.80;;
55728;SDS011;41633;39.720;2.910;2024-01-15T14:45:33;13.63;;;2.63;;
55728;SDS011;41633;39.720;2.910;2024-01-15T14:48:00;11.15;;;3.17;;
55728;SDS011;41633;39.720;2.910;2024-01-15T14:50:28;9.70;;;2.80;;
55728;SDS011;41633;39.720;2.910;2024-01-15T14:52:57;12.93;;;3.10;;
55728;SDS011;41633;39.720;2.910;2024-01-15T14:55:25;11.82;;;3.60;;
55728;SDS011;41633;39.720;2.910;2024-01-15T14:57:54;15.07;;;3.85;;